This is the latest recevied weather packets stored in our database for station/object W7BTL. If no packets are shown the sender has not sent any weather packets the latest 10 day(s).
| Time | Temp. | Humidity | Pressure | Rain* | Wind** | Luminosity | Snow |
|---|---|---|---|---|---|---|---|
| 1788029210 | 33.89° C | 47% | 1011.7 hPa | 0 mm | - | 620 W/m² | - |
| 1788028905 | 33.89° C | 50% | 1011.8 hPa | 0 mm | - | 613 W/m² | - |
| 1788028605 | 32.78° C | 52% | 1011.7 hPa | 0 mm | - | 942 W/m² | - |
| 1788028299 | 32.22° C | 54% | 1011.8 hPa | 0 mm | - | 1040 W/m² | - |
| 1788027995 | 32.78° C | 53% | 1011.9 hPa | 0 mm | - | 555 W/m² | - |
| 1788027691 | 31.67° C | 55% | 1012 hPa | 0 mm | - | 585 W/m² | - |
| 1788027390 | 31.67° C | 54% | 1011.9 hPa | 0 mm | - | 559 W/m² | - |
| 1788027084 | 32.22° C | 53% | 1012 hPa | 0 mm | - | 393 W/m² | - |
| 1788026785 | 32.22° C | 54% | 1011.9 hPa | 0 mm | - | 767 W/m² | - |
| 1788026481 | 32.22° C | 55% | 1011.9 hPa | 0 mm | - | 381 W/m² | - |
| 1788026180 | 31.67° C | 56% | 1012.1 hPa | 0 mm | - | 433 W/m² | - |
| 1788025880 | 31.67° C | 55% | 1011.9 hPa | 0 mm | - | 861 W/m² | - |
| 1788025574 | 31.67° C | 56% | 1012.1 hPa | 0 mm | - | 839 W/m² | - |
| 1788025273 | 31.11° C | 58% | 1012.2 hPa | 0 mm | - | 811 W/m² | - |
| 1788024968 | 31.67° C | 58% | 1012.2 hPa | 0 mm | - | 783 W/m² | - |
| 1788024663 | 31.11° C | 62% | 1012.3 hPa | 0 mm | - | 763 W/m² | - |
| 1788024359 | 31.11° C | 61% | 1012.5 hPa | 0 mm | - | 748 W/m² | - |
| 1788024054 | 31.11° C | 61% | 1012.4 hPa | 0 mm | - | 735 W/m² | - |
| 1788023754 | 30.56° C | 62% | 1012.2 hPa | 0 mm | - | 716 W/m² | - |
| 1788023449 | 30.56° C | 63% | 1012.6 hPa | 0 mm | - | 428 W/m² | - |
| 1788023144 | 30.56° C | 62% | 1012.6 hPa | 0 mm | - | 543 W/m² | - |
| 1788022839 | 30° C | 63% | 1012.4 hPa | 0 mm | - | 724 W/m² | - |
| 1788022536 | 30.56° C | 61% | 1012.4 hPa | 0 mm | - | 170 W/m² | - |
| 1788022232 | 30.56° C | 64% | 1012.2 hPa | 0 mm | - | 426 W/m² | - |
| 1788021930 | 30° C | 63% | 1012.4 hPa | 0 mm | - | 374 W/m² | - |
* Rain latest hour (hover to see other rain measurements)
** Current wind speed in m/s (hover to see current wind gust speed)